Time;durP1;ratioP1;P1;durP2;ratioP2;P2;SDS_P1;SDS_P2;PMS_P1;PMS_P2;Temp;Humidity;BMP_temperature;BMP_pressure;BME280_temperature;BME280_humidity;BME280_pressure;Samples;Min_cycle;Max_cycle;Signal;HPM_P1;HPM_P2
2021/11/26 00:01:03;;;;;;;27.85;18.88;;;;;;;;;;4988037;28;20026;-75
2021/11/26 00:03:29;;;;;;;27.38;17.83;;;;;;;;;;4983604;28;20031;-75
2021/11/26 00:05:55;;;;;;;32.42;20.25;;;;;;;;;;4984210;28;20015;-74
2021/11/26 00:08:22;;;;;;;28.38;18.13;;;;;;;;;;4991972;28;20061;-75
2021/11/26 00:10:48;;;;;;;24.45;16.90;;;;;;;;;;4991853;28;20070;-75
2021/11/26 00:13:20;;;;;;;27.00;17.85;;;;;;;;;;4991587;28;20047;-74
2021/11/26 00:15:48;;;;;;;24.35;17.33;;;;;;;;;;4988850;28;20023;-76
2021/11/26 00:18:19;;;;;;;22.63;17.08;;;;;;;;;;4991171;28;20026;-75
2021/11/26 00:20:49;;;;;;;22.27;16.60;;;;;;;;;;4991710;28;20027;-74
2021/11/26 00:23:21;;;;;;;26.52;17.75;;;;;;;;;;4990845;28;20023;-74
2021/11/26 00:26:09;;;;;;;23.42;16.50;;;;;;;;;;4919517;29;20087;-75
2021/11/26 00:28:35;;;;;;;22.98;16.33;;;;;;;;;;4932330;29;20032;-75
2021/11/26 00:31:01;;;;;;;27.52;18.30;;;;;;;;;;4931685;29;20506;-76
2021/11/26 00:33:27;;;;;;;22.35;17.02;;;;;;;;;;4923774;29;20071;-76
2021/11/26 00:35:54;;;;;;;23.85;18.02;;;;;;;;;;4930666;29;20216;-75
2021/11/26 00:38:20;;;;;;;25.75;17.73;;;;;;;;;;4914449;29;20036;-75
2021/11/26 00:40:46;;;;;;;25.20;17.83;;;;;;;;;;4930850;29;20076;-75
2021/11/26 00:43:12;;;;;;;24.58;17.75;;;;;;;;;;4930210;28;20027;-74
2021/11/26 00:45:38;;;;;;;28.55;18.33;;;;;;;;;;4930302;29;20031;-75
2021/11/26 00:48:05;;;;;;;28.98;20.20;;;;;;;;;;4929995;29;20059;-75
2021/11/26 00:50:33;;;;;;;30.30;19.27;;;;;;;;;;4905733;29;20141;-75
2021/11/26 00:53:02;;;;;;;25.50;17.10;;;;;;;;;;4920257;29;20036;-75
2021/11/26 00:55:28;;;;;;;26.02;17.60;;;;;;;;;;4936423;29;20055;-75
2021/11/26 00:57:54;;;;;;;23.60;16.15;;;;;;;;;;4939152;29;20044;-75
2021/11/26 01:00:21;;;;;;;21.60;16.13;;;;;;;;;;4936653;29;20028;-75
2021/11/26 01:02:47;;;;;;;22.80;15.40;;;;;;;;;;4947794;28;20073;-75
2021/11/26 01:05:14;;;;;;;20.73;14.85;;;;;;;;;;4986476;28;20087;-75
2021/11/26 01:07:47;;;;;;;23.55;15.25;;;;;;;;;;4993002;28;20078;-75
2021/11/26 01:10:16;;;;;;;21.08;15.63;;;;;;;;;;4988787;28;20026;-76
2021/11/26 01:12:42;;;;;;;19.80;15.05;;;;;;;;;;4977445;28;20515;-75
2021/11/26 01:15:10;;;;;;;23.42;14.95;;;;;;;;;;4984274;28;20067;-75
2021/11/26 01:17:40;;;;;;;20.88;15.98;;;;;;;;;;4986917;28;20081;-75
2021/11/26 01:20:08;;;;;;;22.42;15.82;;;;;;;;;;4970853;28;20022;-74
2021/11/26 01:22:36;;;;;;;20.75;16.17;;;;;;;;;;4991382;28;20033;-75
2021/11/26 01:25:03;;;;;;;22.55;15.75;;;;;;;;;;4980266;28;20027;-75
2021/11/26 01:27:30;;;;;;;22.83;16.25;;;;;;;;;;4985382;28;20042;-76
2021/11/26 01:29:56;;;;;;;22.50;16.15;;;;;;;;;;4984541;28;20102;-75
2021/11/26 01:32:22;;;;;;;23.17;16.05;;;;;;;;;;4985337;28;20031;-75
2021/11/26 01:34:48;;;;;;;25.55;16.83;;;;;;;;;;4981417;28;20087;-75
2021/11/26 01:37:18;;;;;;;22.38;16.05;;;;;;;;;;4984419;28;20038;-74
2021/11/26 01:39:44;;;;;;;21.63;14.85;;;;;;;;;;4993628;28;20038;-76
2021/11/26 01:42:11;;;;;;;20.02;14.95;;;;;;;;;;4982481;28;20015;-74
2021/11/26 01:44:37;;;;;;;23.75;15.95;;;;;;;;;;4990815;28;20027;-75
2021/11/26 01:47:03;;;;;;;20.45;15.07;;;;;;;;;;4990850;28;20019;-74
2021/11/26 01:49:29;;;;;;;19.55;15.07;;;;;;;;;;4987841;28;20069;-75
2021/11/26 01:51:55;;;;;;;23.02;15.65;;;;;;;;;;4981127;28;20034;-75
2021/11/26 01:54:21;;;;;;;21.45;15.23;;;;;;;;;;4964198;28;20031;-75
2021/11/26 01:56:47;;;;;;;19.67;14.07;;;;;;;;;;4978867;28;20059;-75
2021/11/26 01:59:13;;;;;;;21.90;14.63;;;;;;;;;;4976401;28;20038;-75
2021/11/26 02:01:39;;;;;;;17.90;13.52;;;;;;;;;;4977096;28;20027;-75
2021/11/26 02:04:05;;;;;;;18.70;14.27;;;;;;;;;;4977208;28;20038;-75
2021/11/26 02:06:31;;;;;;;20.52;14.70;;;;;;;;;;4978139;28;20129;-75
2021/11/26 02:08:57;;;;;;;24.67;15.70;;;;;;;;;;4958963;28;20046;-75
2021/11/26 02:11:23;;;;;;;20.30;14.98;;;;;;;;;;4978637;28;20546;-75
2021/11/26 02:13:50;;;;;;;20.55;15.38;;;;;;;;;;4978779;28;20026;-75
2021/11/26 02:16:17;;;;;;;21.88;15.00;;;;;;;;;;4978264;28;20391;-75
2021/11/26 02:18:48;;;;;;;22.73;16.75;;;;;;;;;;4977603;28;20039;-74
2021/11/26 02:21:15;;;;;;;21.08;15.30;;;;;;;;;;4977831;28;20023;-75
2021/11/26 02:23:41;;;;;;;17.88;13.00;;;;;;;;;;4978348;28;20063;-74
2021/11/26 02:26:07;;;;;;;16.63;12.57;;;;;;;;;;4978797;28;20062;-74
2021/11/26 02:28:33;;;;;;;17.05;11.43;;;;;;;;;;4977324;28;20477;-75
2021/11/26 02:30:59;;;;;;;18.90;11.68;;;;;;;;;;4978138;28;20035;-75
2021/11/26 02:33:28;;;;;;;19.95;11.80;;;;;;;;;;4977897;28;20031;-75
2021/11/26 02:35:57;;;;;;;17.23;11.20;;;;;;;;;;4978516;28;20031;-75
2021/11/26 02:38:24;;;;;;;16.95;11.27;;;;;;;;;;4981017;28;20046;-75
2021/11/26 02:40:52;;;;;;;16.17;11.52;;;;;;;;;;4980958;28;20027;-75
2021/11/26 02:43:22;;;;;;;15.98;11.30;;;;;;;;;;4981843;28;20027;-75
2021/11/26 02:45:48;;;;;;;15.55;10.65;;;;;;;;;;4979044;28;20488;-75
2021/11/26 02:48:14;;;;;;;14.98;10.40;;;;;;;;;;4981049;28;20034;-75
2021/11/26 02:50:42;;;;;;;14.93;10.63;;;;;;;;;;4982359;28;20022;-74
2021/11/26 02:53:08;;;;;;;15.27;11.38;;;;;;;;;;4981594;28;20488;-74
2021/11/26 02:55:35;;;;;;;14.82;10.80;;;;;;;;;;4979341;28;20026;-75
2021/11/26 02:58:02;;;;;;;16.77;11.00;;;;;;;;;;4983352;28;20070;-74
2021/11/26 03:00:29;;;;;;;14.23;11.20;;;;;;;;;;4980643;28;20162;-75
2021/11/26 03:02:58;;;;;;;16.60;11.02;;;;;;;;;;4978771;28;20392;-75
2021/11/26 03:05:24;;;;;;;14.73;10.43;;;;;;;;;;4979431;28;20105;-75
2021/11/26 03:07:50;;;;;;;15.13;11.15;;;;;;;;;;4979797;28;20057;-74
2021/11/26 03:10:18;;;;;;;14.07;10.65;;;;;;;;;;4980091;28;20039;-75
2021/11/26 03:12:46;;;;;;;15.90;11.30;;;;;;;;;;4982041;28;20058;-74
2021/11/26 03:15:12;;;;;;;15.05;11.05;;;;;;;;;;4985028;28;20141;-75
2021/11/26 03:17:38;;;;;;;14.93;10.90;;;;;;;;;;4965553;29;20119;-75
2021/11/26 03:20:07;;;;;;;15.02;10.73;;;;;;;;;;4954577;28;20027;-74
2021/11/26 03:22:33;;;;;;;13.90;10.77;;;;;;;;;;4986730;28;20041;-75
2021/11/26 03:25:01;;;;;;;13.77;10.88;;;;;;;;;;4979362;28;20023;-75
2021/11/26 03:27:27;;;;;;;14.75;10.38;;;;;;;;;;4982848;28;20029;-75
2021/11/26 03:29:56;;;;;;;17.50;12.15;;;;;;;;;;4982384;28;20022;-75
2021/11/26 03:32:25;;;;;;;16.88;11.02;;;;;;;;;;4981450;28;20050;-75
2021/11/26 03:34:51;;;;;;;14.02;10.60;;;;;;;;;;4979405;28;20027;-75
2021/11/26 03:37:17;;;;;;;15.63;11.60;;;;;;;;;;4977714;28;20035;-75
2021/11/26 03:39:43;;;;;;;14.40;11.65;;;;;;;;;;4982406;28;20191;-75
2021/11/26 03:42:10;;;;;;;14.63;11.38;;;;;;;;;;4984327;28;20046;-76
2021/11/26 03:44:36;;;;;;;15.18;10.73;;;;;;;;;;4984143;28;20134;-75
2021/11/26 03:47:02;;;;;;;14.35;11.93;;;;;;;;;;4964112;28;20027;-75
2021/11/26 03:49:28;;;;;;;15.05;11.73;;;;;;;;;;4985073;28;20030;-75
2021/11/26 03:51:54;;;;;;;16.10;11.45;;;;;;;;;;4981346;28;20030;-75
2021/11/26 03:54:20;;;;;;;15.15;11.57;;;;;;;;;;4984091;28;20027;-75
2021/11/26 03:56:47;;;;;;;14.50;11.75;;;;;;;;;;4984032;28;20515;-75
2021/11/26 03:59:13;;;;;;;14.85;11.40;;;;;;;;;;4982934;28;20030;-75
2021/11/26 04:01:39;;;;;;;15.48;11.23;;;;;;;;;;4975976;28;20035;-75
2021/11/26 04:04:05;;;;;;;17.10;12.68;;;;;;;;;;4982512;28;20464;-74
2021/11/26 04:06:31;;;;;;;16.98;11.63;;;;;;;;;;4964531;28;20102;-75
2021/11/26 04:08:56;;;;;;;15.52;11.55;;;230.40;2252.80;;;;;;4980840;28;20488;-75
2021/11/26 04:11:22;;;;;;;17.50;12.85;;;205.70;2252.80;;;;;;4980606;28;20526;-75
2021/11/26 04:13:50;;;;;;;18.35;12.15;;;;;;;;;;4980497;28;20050;-75
2021/11/26 04:16:17;;;;;;;19.08;13.93;;;;;;;;;;4979126;28;20043;-74
2021/11/26 04:18:44;;;;;;;18.08;14.43;;;;;;;;;;4978023;28;20105;-75
2021/11/26 04:21:10;;;;;;;18.88;14.05;;;205.60;2252.80;;;;;;4978991;28;20023;-75
2021/11/26 04:23:36;;;;;;;19.58;14.73;;;;;;;;;;4979217;28;20157;-75
2021/11/26 04:26:04;;;;;;;19.55;15.23;;;;;;;;;;4979021;28;20034;-75
2021/11/26 04:28:30;;;;;;;19.95;14.77;;;;;;;;;;4981541;28;20480;-75
2021/11/26 04:31:01;;;;;;;20.35;14.80;;;;;;;;;;4967011;28;20035;-74
2021/11/26 04:33:28;;;;;;;20.92;15.35;;;;;;;;;;4978678;28;20564;-75
2021/11/26 04:35:55;;;;;;;20.95;14.05;;;;;;;;;;4979150;28;20059;-75
2021/11/26 04:38:21;;;;;;;25.33;16.02;;;;;;;;;;4977652;28;20046;-74
2021/11/26 04:40:48;;;;;;;25.25;16.73;;;;;;;;;;4978474;28;20026;-74
2021/11/26 04:43:16;;;;;;;22.45;16.38;;;;;;;;;;4978479;28;20113;-74
2021/11/26 04:45:43;;;;;;;24.77;17.30;;;;;;;;;;4979439;28;20015;-74
2021/11/26 04:48:11;;;;;;;22.98;16.63;;;;;;;;;;4973992;28;20027;-74
2021/11/26 04:50:37;;;;;;;22.67;15.98;;;;;;;;;;4977308;28;20065;-74
2021/11/26 04:53:03;;;;;;;25.60;17.35;;;;;;;;;;4976532;28;20030;-74
2021/11/26 04:55:29;;;;;;;24.25;17.30;;;;;;;;;;4993935;28;20018;-75
2021/11/26 04:57:55;;;;;;;25.17;17.27;;;;;;;;;;4976944;28;20039;-74
2021/11/26 05:00:23;;;;;;;22.48;15.93;;;;;;;;;;4977228;28;20033;-75
2021/11/26 05:02:50;;;;;;;25.08;17.95;;;;;;;;;;4973669;28;20070;-75
2021/11/26 05:05:17;;;;;;;22.40;15.32;;;;;;;;;;4982334;28;20125;-74
2021/11/26 05:07:43;;;;;;;25.20;18.65;;;;;;;;;;4975248;28;20046;-74
2021/11/26 05:10:10;;;;;;;27.90;18.33;;;;;;;;;;4975926;28;20498;-75
2021/11/26 05:12:43;;;;;;;24.63;17.52;;;;;;;;;;4959826;28;20035;-74
2021/11/26 05:15:12;;;;;;;28.50;16.92;;;;;;;;;;4978368;28;20019;-74
2021/11/26 05:17:38;;;;;;;28.17;19.35;;;;;;;;;;4979011;28;20045;-74
2021/11/26 05:20:05;;;;;;;22.65;16.60;;;;;;;;;;4981274;28;20038;-75
2021/11/26 05:22:31;;;;;;;25.85;17.13;;;;;;;;;;4962632;28;20031;-76
2021/11/26 05:24:57;;;;;;;27.10;17.38;;;;;;;;;;4980651;28;20030;-75
2021/11/26 05:27:23;;;;;;;29.70;19.25;;;;;;;;;;4990848;28;20037;-76
2021/11/26 05:29:50;;;;;;;23.58;14.95;;;;;;;;;;4996231;28;20027;-76
2021/11/26 05:32:18;;;;;;;22.77;14.52;;;;;;;;;;4974434;28;20023;-75
2021/11/26 05:34:45;;;;;;;24.02;14.77;;;;;;;;;;4978092;28;20026;-74
2021/11/26 05:37:12;;;;;;;25.33;16.80;;;;;;;;;;4977558;28;20059;-75
2021/11/26 05:39:41;;;;;;;22.90;16.65;;;;;;;;;;4976474;28;20054;-75
2021/11/26 05:42:07;;;;;;;23.45;14.23;;;;;;;;;;4978228;28;20031;-75
2021/11/26 05:44:33;;;;;;;24.30;14.32;;;;;;;;;;4978851;28;20023;-73
2021/11/26 05:46:59;;;;;;;23.85;16.13;;;;;;;;;;4958632;28;20537;-75
2021/11/26 05:49:28;;;;;;;21.08;14.55;;;;;;;;;;4959844;28;20053;-74
2021/11/26 05:51:54;;;;;;;25.20;17.33;;;;;;;;;;4973522;28;20493;-74
2021/11/26 05:54:20;;;;;;;26.55;19.35;;;;;;;;;;4984757;28;20487;-75
2021/11/26 05:56:46;;;;;;;24.38;16.88;;;;;;;;;;4998791;28;20077;-74
2021/11/26 05:59:12;;;;;;;17.67;13.85;;;;;;;;;;5006668;28;20042;-74
2021/11/26 06:01:38;;;;;;;22.73;15.63;;;;;;;;;;4986669;28;20027;-76
2021/11/26 06:04:04;;;;;;;20.98;14.48;;;;;;;;;;4985144;28;20027;-73
2021/11/26 06:06:30;;;;;;;20.95;14.48;;;;;;;;;;4987065;28;20071;-73
2021/11/26 06:09:02;;;;;;;19.83;15.23;;;;;;;;;;4988096;28;20062;-77
2021/11/26 06:11:31;;;;;;;19.05;13.93;;;;;;;;;;4975507;28;20023;-74
2021/11/26 06:13:57;;;;;;;18.73;13.85;;;;;;;;;;4979002;28;20027;-78
2021/11/26 06:16:23;;;;;;;19.85;14.05;;;;;;;;;;4971298;28;20417;-74
2021/11/26 06:18:49;;;;;;;17.27;12.30;;;;;;;;;;4986963;28;20034;-75
2021/11/26 06:21:15;;;;;;;18.63;13.90;;;;;;;;;;4984317;28;20052;-74
2021/11/26 06:23:41;;;;;;;18.92;13.57;;;;;;;;;;4984871;28;20023;-78
2021/11/26 06:26:08;;;;;;;21.23;14.10;;;;;;;;;;4980279;28;20037;-77
2021/11/26 06:28:34;;;;;;;18.05;12.98;;;;;;;;;;4982249;28;20019;-76
2021/11/26 06:31:00;;;;;;;19.85;14.95;;;;;;;;;;4978967;28;20042;-76
2021/11/26 06:33:26;;;;;;;21.25;14.55;;;;;;;;;;4987671;28;20038;-76
2021/11/26 06:35:52;;;;;;;19.15;15.13;;;;;;;;;;4989931;28;20069;-79
2021/11/26 06:38:18;;;;;;;17.48;13.95;;;;;;;;;;4986841;28;20094;-78
2021/11/26 06:40:45;;;;;;;17.80;14.05;;;;;;;;;;4994235;28;20021;-76
2021/11/26 06:43:11;;;;;;;16.77;13.32;;;;;;;;;;4994275;28;20039;-76
2021/11/26 06:45:37;;;;;;;20.33;14.25;;;;;;;;;;4993535;28;20050;-76
2021/11/26 06:48:03;;;;;;;22.20;14.68;;;;;;;;;;4994454;28;20026;-77
2021/11/26 06:50:29;;;;;;;20.17;14.13;;;;;;;;;;4990836;28;20069;-73
2021/11/26 06:52:55;;;;;;;23.50;15.77;;;;;;;;;;4992267;28;20034;-75
2021/11/26 06:55:22;;;;;;;23.25;14.68;;;;;;;;;;4993233;28;20035;-74
2021/11/26 06:57:48;;;;;;;22.02;14.77;;;;;;;;;;4969225;28;20073;-74
2021/11/26 07:00:15;;;;;;;20.42;15.90;;;;;;;;;;4980760;28;20037;-74
2021/11/26 07:02:42;;;;;;;22.35;16.08;;;;;;;;;;4974391;28;20026;-74
2021/11/26 07:05:08;;;;;;;23.55;14.90;;;;;;;;;;4976609;28;20086;-73
2021/11/26 07:07:34;;;;;;;22.20;14.77;;;;;;;;;;4977371;28;20101;-75
2021/11/26 07:10:01;;;;;;;20.95;15.52;;;;;;;;;;4979171;28;20111;-76
2021/11/26 07:12:27;;;;;;;23.48;14.68;;;;;;;;;;4977338;28;20035;-78
2021/11/26 07:14:53;;;;;;;22.95;15.65;;;;;;;;;;4980784;28;20469;-77
2021/11/26 07:17:19;;;;;;;20.60;15.75;;;;;;;;;;4984195;28;20531;-78
2021/11/26 07:19:49;;;;;;;22.27;14.23;;;;;;;;;;4964188;28;20031;-75
2021/11/26 07:22:16;;;;;;;23.67;14.82;;;;;;;;;;4992655;28;20030;-75
2021/11/26 07:24:43;;;;;;;23.52;14.30;;;;;;;;;;4992463;28;20030;-76
2021/11/26 07:27:28;;;;;;;20.05;14.60;;;;;;;;;;4994363;28;20105;-79
2021/11/26 07:29:55;;;;;;;18.52;13.38;;;;;;;;;;4991012;28;20062;-76
2021/11/26 07:32:21;;;;;;;20.52;13.70;;;;;;;;;;4968828;28;20031;-79
2021/11/26 07:34:48;;;;;;;18.10;13.02;;;;;;;;;;4983813;28;20035;-78
2021/11/26 07:37:17;;;;;;;21.98;14.05;;;;;;;;;;4982328;28;20042;-79
2021/11/26 07:39:43;;;;;;;21.60;15.05;;;;;;;;;;4972435;28;20043;-77
2021/11/26 07:42:10;;;;;;;20.75;14.40;;;;;;;;;;4976504;28;20137;-76
2021/11/26 07:44:37;;;;;;;19.02;14.15;;;;;;;;;;4976456;28;20077;-74
2021/11/26 07:47:08;;;;;;;21.50;14.27;;;;;;;;;;4979022;28;20054;-77
2021/11/26 07:49:34;;;;;;;22.30;12.05;;;;;;;;;;4981476;28;20105;-76
2021/11/26 07:52:01;;;;;;;22.58;14.05;;;;;;;;;;4984624;28;20026;-75
2021/11/26 07:54:27;;;;;;;19.05;13.93;;;;;;;;;;4985774;28;20019;-77
2021/11/26 07:56:54;;;;;;;19.80;13.10;;;;;;;;;;4983083;28;20440;-75
2021/11/26 07:59:20;;;;;;;20.88;13.70;;;;;;;;;;4988132;28;20116;-76
2021/11/26 08:01:49;;;;;;;19.00;13.43;;;;;;;;;;4995594;28;20147;-78
2021/11/26 08:04:17;;;;;;;17.63;13.30;;;;;;;;;;4993051;28;20074;-75
2021/11/26 08:06:46;;;;;;;20.17;13.85;;;;;;;;;;4977185;28;20041;-75
2021/11/26 08:09:12;;;;;;;20.75;13.85;;;;;;;;;;4973878;28;20022;-77
2021/11/26 08:11:39;;;;;;;18.50;11.98;;;;;;;;;;4977538;28;20114;-76
2021/11/26 08:14:05;;;;;;;20.55;14.30;;;;;;;;;;4976155;28;20027;-76
2021/11/26 08:16:33;;;;;;;21.42;13.52;;;;;;;;;;4981585;28;20059;-77
2021/11/26 08:18:59;;;;;;;19.50;13.93;;;;;;;;;;4957547;28;20067;-78
2021/11/26 08:21:25;;;;;;;22.17;13.20;;;;;;;;;;4967021;28;20039;-77
2021/11/26 08:23:51;;;;;;;22.08;14.38;;;;;;;;;;4978173;28;20106;-78
2021/11/26 08:26:17;;;;;;;16.67;12.15;;;;;;;;;;4978467;28;20034;-76
2021/11/26 08:28:44;;;;;;;18.33;13.25;;;;;;;;;;4978969;28;20131;-79
2021/11/26 08:31:11;;;;;;;20.75;13.65;;;;;;;;;;4979591;28;20527;-78
2021/11/26 08:33:37;;;;;;;17.42;13.15;;;;;;;;;;4960783;28;20121;-77
2021/11/26 08:36:08;;;;;;;17.85;13.48;;;;;;;;;;4978652;28;20023;-80
2021/11/26 08:38:34;;;;;;;21.02;13.80;;;;;;;;;;4978969;28;20102;-78
2021/11/26 08:41:00;;;;;;;17.42;12.70;;;;;;;;;;4963217;28;20126;-76
2021/11/26 08:43:26;;;;;;;18.58;13.75;;;;;;;;;;4973768;28;20023;-75
2021/11/26 08:45:53;;;;;;;22.10;15.43;;;;;;;;;;4980585;28;20027;-76
2021/11/26 08:48:19;;;;;;;23.85;15.93;;;;;;;;;;4988695;28;20062;-77
2021/11/26 08:50:49;;;;;;;24.48;15.40;;;;;;;;;;4988997;28;20039;-77
2021/11/26 08:53:16;;;;;;;27.77;16.95;;;;;;;;;;4975108;28;20027;-77
2021/11/26 08:55:49;;;;;;;26.40;18.65;;;;;;;;;;4979353;28;20110;-75
2021/11/26 08:58:15;;;;;;;29.63;19.92;;;;;;;;;;4971164;28;20377;-76
2021/11/26 09:00:42;;;;;;;31.88;20.02;;;;;;;;;;4976056;28;20110;-76
2021/11/26 09:03:08;;;;;;;29.02;18.63;;;;;;;;;;4975548;28;20053;-78
2021/11/26 09:05:43;;;;;;;29.58;19.50;;;;;;;;;;4991036;28;20057;-77
2021/11/26 09:08:16;;;;;;;31.38;19.42;;;;;;;;;;4977163;28;20042;-77
2021/11/26 09:10:45;;;;;;;28.25;18.17;;;;;;;;;;4966462;28;20049;-78
2021/11/26 09:13:17;;;;;;;29.88;21.17;;;;;;;;;;4948846;29;20028;-79
2021/11/26 09:15:53;;;;;;;31.60;21.35;;;;;;;;;;4933222;29;20033;-79
2021/11/26 09:18:45;;;;;;;33.97;22.02;;;;;;;;;;4919516;29;20105;-80
2021/11/26 09:21:15;;;;;;;31.90;21.27;;;;;;;;;;4933262;29;20036;-79
2021/11/26 09:23:42;;;;;;;37.50;20.42;;;;;;;;;;4901827;29;20442;-74
2021/11/26 09:26:08;;;;;;;27.30;19.55;;;;;;;;;;4913422;29;20040;-74
2021/11/26 09:28:36;;;;;;;26.90;18.55;;;;;;;;;;4914792;29;20032;-75
2021/11/26 09:31:02;;;;;;;28.88;18.02;;;;;;;;;;4912912;29;20075;-76
2021/11/26 09:33:35;;;;;;;28.80;19.10;;;;;;;;;;4921379;29;20047;-76
2021/11/26 09:36:01;;;;;;;30.30;19.35;;;;;;;;;;4915701;29;20079;-75
2021/11/26 09:38:27;;;;;;;26.35;18.92;;;;;;;;;;4919734;29;20518;-75
2021/11/26 09:40:54;;;;;;;23.48;16.60;;;;;;;;;;4918548;29;20384;-77
2021/11/26 09:43:21;;;;;;;28.63;19.33;;;;;;;;;;4920074;29;20769;-78
2021/11/26 09:45:48;;;;;;;27.70;19.40;;;;;;;;;;4916788;29;20115;-77
2021/11/26 09:48:17;;;;;;;27.23;18.35;;;;;;;;;;4928367;29;20081;-79
2021/11/26 09:50:43;;;;;;;26.05;18.98;;;;;;;;;;4921612;29;20067;-77
2021/11/26 09:53:12;;;;;;;26.33;17.85;;;;;;;;;;4934359;29;20099;-77
2021/11/26 09:55:40;;;;;;;29.73;20.60;;;;;;;;;;4922005;29;20524;-77
2021/11/26 09:58:06;;;;;;;29.75;19.35;;;;;;;;;;4959487;28;20076;-78
2021/11/26 10:00:39;;;;;;;26.33;17.40;;;;;;;;;;4962130;28;20026;-78
2021/11/26 10:03:10;;;;;;;25.17;17.60;;;;;;;;;;4982580;28;20081;-77
2021/11/26 10:05:39;;;;;;;26.30;18.90;;;;;;;;;;4967824;28;20121;-78
2021/11/26 10:08:05;;;;;;;25.88;18.70;;;;;;;;;;4936991;29;20078;-76
2021/11/26 10:10:36;;;;;;;29.30;18.52;;;;;;;;;;4935351;29;20115;-76
2021/11/26 10:13:02;;;;;;;29.63;18.38;;;;;;;;;;4945832;29;20028;-76
2021/11/26 10:15:30;;;;;;;24.45;15.77;;;;;;;;;;4959230;29;20071;-76
2021/11/26 10:18:15;;;;;;;25.95;18.80;;;;;;;;;;4959384;29;20016;-77
2021/11/26 10:20:55;;;;;;;24.60;17.35;;;;;;;;;;4950723;29;20031;-76
2021/11/26 10:23:21;;;;;;;28.00;20.27;;;;;;;;;;4937018;29;20044;-76
2021/11/26 10:25:49;;;;;;;28.20;19.23;;;;;;;;;;4951502;29;20027;-78
2021/11/26 10:28:17;;;;;;;29.95;19.35;;;;;;;;;;4952386;29;20070;-76
2021/11/26 10:30:47;;;;;;;25.77;17.10;;;;;;;;;;4935361;29;20039;-76
2021/11/26 10:33:23;;;;;;;31.17;19.75;;;;;;;;;;4934810;29;20524;-75
2021/11/26 10:35:49;;;;;;;26.73;18.80;;;;;;;;;;4915966;29;20038;-77
2021/11/26 10:38:18;;;;;;;27.35;17.50;;;;;;;;;;4936346;29;20521;-77
2021/11/26 10:40:48;;;;;;;27.90;18.70;;;;;;;;;;4935482;29;20068;-78
2021/11/26 10:43:19;;;;;;;31.25;19.90;;;;;;;;;;4937048;29;20031;-76
2021/11/26 10:59:14;;;;;;;32.83;22.13;;;;;;;;;;4972117;28;20073;-74
2021/11/26 11:01:43;;;;;;;27.80;19.90;;;;;;;;;;4987736;28;20105;-77
2021/11/26 11:04:14;;;;;;;28.65;18.88;;;;;;;;;;4969416;28;20050;-79
2021/11/26 11:06:44;;;;;;;30.38;19.83;;;;;;;;;;4976989;28;20116;-77
2021/11/26 11:09:11;;;;;;;28.02;19.35;;;;;;;;;;4965463;28;20034;-75
2021/11/26 11:11:52;;;;;;;27.40;20.33;;;;;;;;;;4980253;28;20034;-76
2021/11/26 11:14:24;;;;;;;24.45;17.70;;;;;;;;;;4973104;28;20023;-75
2021/11/26 11:16:51;;;;;;;26.30;19.00;;;;;;;;;;4963147;28;20038;-74
2021/11/26 11:19:18;;;;;;;31.65;19.20;;;;;;;;;;4979787;28;20031;-77
2021/11/26 11:21:44;;;;;;;23.45;13.88;;;;;;;;;;4984337;28;20031;-77
2021/11/26 11:24:12;;;;;;;25.02;18.50;;;;;;;;;;4976891;28;20027;-77
2021/11/26 11:26:45;;;;;;;24.38;17.45;;;;;;;;;;4976148;28;20081;-77
2021/11/26 11:29:11;;;;;;;23.02;17.55;;;;;;;;;;4977490;28;20022;-77
2021/11/26 11:31:41;;;;;;;22.20;16.45;;;;;;;;;;4981103;28;20442;-78
2021/11/26 11:34:07;;;;;;;22.73;17.25;;;;;;;;;;4981060;28;20504;-77
2021/11/26 11:36:48;;;;;;;23.65;15.98;;;;;;;;;;4978693;28;20113;-76
2021/11/26 11:39:14;;;;;;;20.90;15.27;;;;;;;;;;4971966;28;20043;-77
2021/11/26 11:42:03;;;;;;;22.45;15.60;;;;;;;;;;4972973;28;20022;-76
2021/11/26 11:44:35;;;;;;;21.98;15.05;;;;;;;;;;4983573;28;20090;-79
2021/11/26 11:47:14;;;;;;;20.67;14.80;;;;;;;;;;4980139;28;20035;-77
2021/11/26 11:49:40;;;;;;;21.98;15.13;;;;;;;;;;4982053;28;20030;-77
2021/11/26 11:52:10;;;;;;;21.40;15.02;;;;;;;;;;4978978;28;20031;-76
2021/11/26 11:54:41;;;;;;;18.88;13.05;;;;;;;;;;4963667;28;20133;-78
2021/11/26 12:03:19;;;;;;;20.27;13.45;;;;;;;;;;4991315;28;20050;-80
2021/11/26 12:08:38;;;;;;;17.88;12.68;;;;;;;;;;5272788;23;20066;-79
2021/11/26 12:11:44;;;;;;;20.95;13.68;;;;;;;;;;4938125;29;20121;-79
2021/11/26 12:23:29;;;;;;;18.92;14.13;;;;;;;;;;5190619;23;20421;-73
2021/11/26 12:28:48;;;;;;;19.85;14.45;;;;;;;;;;4958721;28;20031;-76
2021/11/26 12:31:15;;;;;;;19.65;12.90;;;;;;;;;;4941522;29;20046;-75
2021/11/26 12:33:41;;;;;;;18.00;12.85;;;;;;;;;;4941771;28;20094;-77
2021/11/26 12:36:10;;;;;;;19.00;14.02;;;;;;;;;;4940490;29;20053;-77
2021/11/26 12:38:46;;;;;;;18.13;14.43;;;;;;;;;;4973730;28;20489;-77
2021/11/26 12:41:37;;;;;;;19.90;14.40;;;;;;;;;;4951523;29;20095;-79
2021/11/26 12:44:03;;;;;;;19.45;14.35;;;;;;;;;;4943579;29;20118;-75
2021/11/26 12:46:31;;;;;;;16.98;12.52;;;;;;;;;;4955173;28;20046;-75
2021/11/26 12:51:03;;;;;;;16.67;12.02;;;;;;;;;;4957321;28;20023;-75
2021/11/26 12:51:54;;;;;;;18.13;11.73;;;;;;;;;;4948021;28;20217;-76
2021/11/26 12:54:29;;;;;;;17.90;12.82;;;;;;;;;;4961434;28;20098;-78
2021/11/26 13:00:11;;;;;;;16.58;12.43;;;;;;;;;;4902041;29;20032;-76
2021/11/26 13:02:38;;;;;;;17.48;12.07;;;;;;;;;;4905338;29;20084;-76
2021/11/26 13:05:21;;;;;;;15.45;11.55;;;;;;;;;;4903379;29;20028;-78
2021/11/26 13:07:48;;;;;;;16.92;12.07;;;;;;;;;;4912160;29;20037;-78
2021/11/26 13:10:24;;;;;;;17.48;13.68;;;;;;;;;;4917265;29;20028;-79
2021/11/26 13:13:00;;;;;;;18.15;13.00;;;;;;;;;;4894944;29;20047;-78
2021/11/26 13:15:36;;;;;;;16.38;12.35;;;;;;;;;;4909972;29;20135;-78
2021/11/26 13:18:04;;;;;;;17.15;12.65;;;;;;;;;;4883593;29;20056;-76
2021/11/26 13:20:36;;;;;;;15.02;11.18;;;;;;;;;;4898557;29;20505;-75
2021/11/26 13:23:06;;;;;;;16.67;12.18;;;;;;;;;;4917881;29;20056;-78
2021/11/26 13:25:34;;;;;;;16.50;11.32;;;;;;;;;;4915966;29;20029;-79
2021/11/26 13:28:01;;;;;;;18.15;11.85;;;;;;;;;;4906733;29;20443;-75
2021/11/26 13:30:33;;;;;;;15.80;11.40;;;;;;;;;;4898683;29;20452;-76
2021/11/26 13:33:07;;;;;;;14.75;11.07;;;;;;;;;;4915421;29;20192;-75
2021/11/26 13:35:39;;;;;;;13.15;10.43;;;;;;;;;;4917997;28;20033;-76
2021/11/26 13:38:09;;;;;;;14.25;10.93;;;;;;;;;;4961409;28;20035;-77
2021/11/26 13:40:39;;;;;;;14.13;10.38;;;;;;;;;;4966911;28;20032;-76
2021/11/26 13:43:06;;;;;;;19.13;15.25;;;;;;;;;;4949288;29;20034;-75
2021/11/26 13:45:37;;;;;;;16.33;11.60;;;;;;;;;;4953808;28;20035;-76
2021/11/26 13:48:04;;;;;;;17.70;13.38;;;;;;;;;;4976222;29;20023;-76
2021/11/26 13:50:33;;;;;;;14.85;10.65;;;;;;;;;;4969805;28;20056;-78
2021/11/26 13:53:00;;;;;;;15.45;11.32;;;;;;;;;;4972902;28;20057;-78
2021/11/26 13:55:30;;;;;;;14.88;10.95;;;;;;;;;;4968041;29;20027;-82
2021/11/26 13:58:12;;;;;;;16.90;11.80;;;;;;;;;;4960603;28;20063;-79
2021/11/26 14:00:44;;;;;;;17.75;12.35;;;;;;;;;;4977361;29;20032;-78
2021/11/26 14:03:11;;;;;;;20.45;13.30;;;;;;;;;;4949579;29;20103;-79
2021/11/26 14:05:43;;;;;;;13.75;10.23;;;;;;;;;;4951857;29;20008;-79
2021/11/26 14:08:11;;;;;;;12.10;9.27;;;;;;;;;;4961536;29;20095;-79
2021/11/26 14:10:46;;;;;;;14.88;10.95;;;;;;;;;;4968931;29;20026;-78
2021/11/26 14:13:12;;;;;;;13.25;10.88;;;;;;;;;;4954704;29;20047;-79
2021/11/26 14:15:38;;;;;;;15.85;10.88;;;;;;;;;;4966214;29;20051;-79
2021/11/26 14:18:12;;;;;;;16.13;11.52;;;;;;;;;;4966051;29;20072;-79
2021/11/26 14:20:39;;;;;;;;;;;;;;;;;;4954303;29;20063;-79
2021/11/26 14:23:13;;;;;;;15.52;11.45;;;;;;;;;;4968202;28;19910;-79
2021/11/26 14:25:50;;;;;;;;;;;;;;;;;;4946618;29;20027;-79
2021/11/26 14:28:21;;;;;;;18.27;12.18;;;;;;;;;;4956471;29;19913;-79
2021/11/26 14:30:48;;;;;;;18.27;12.23;;;;;;;;;;4955855;29;20032;-80
2021/11/26 14:33:18;;;;;;;15.63;10.65;;;;;;;;;;4955941;29;20044;-80
2021/11/26 14:35:46;;;;;;;15.63;11.73;;;;;;;;;;4946559;29;20044;-79
2021/11/26 14:38:13;;;;;;;33.88;23.80;;;;;;;;;;4953398;28;20039;-79
2021/11/26 14:40:41;;;;;;;61.05;37.72;;;;;;;;;;4941964;29;20079;-79
2021/11/26 14:43:17;;;;;;;36.85;26.25;;;;;;;;;;4976000;28;20066;-79
2021/11/26 14:45:55;;;;;;;37.22;24.88;;;;;;;;;;4975457;28;20024;-79
2021/11/26 14:48:43;;;;;;;19.75;14.10;;;;;;;;;;4965690;28;20035;-78
2021/11/26 14:51:14;;;;;;;19.65;14.52;;;;;;;;;;4959614;28;20087;-76
2021/11/26 14:53:40;;;;;;;17.63;11.77;;;;;;;;;;4948512;29;20106;-76
2021/11/26 14:56:08;;;;;;;17.05;12.57;;;;;;;;;;4974558;28;21646;-77
2021/11/26 14:58:35;;;;;;;15.93;12.13;;;;;;;;;;4970484;28;20054;-79
2021/11/26 15:01:02;;;;;;;20.83;14.02;;;;;;;;;;4967784;28;20027;-77